sensor_id;sensor_type;location;lat;lon;timestamp;P1;durP1;ratioP1;P2;durP2;ratioP2
8285;SDS011;4181;43.416;24.598;2023-04-24T00:01:48;10.17;;;5.47;;
8285;SDS011;4181;43.416;24.598;2023-04-24T00:04:13;9.30;;;5.50;;
8285;SDS011;4181;43.416;24.598;2023-04-24T00:06:41;6.43;;;5.30;;
8285;SDS011;4181;43.416;24.598;2023-04-24T00:09:07;8.27;;;6.17;;
8285;SDS011;4181;43.416;24.598;2023-04-24T00:11:35;8.97;;;5.17;;
8285;SDS011;4181;43.416;24.598;2023-04-24T00:14:01;8.07;;;5.43;;
8285;SDS011;4181;43.416;24.598;2023-04-24T00:16:26;9.63;;;5.27;;
8285;SDS011;4181;43.416;24.598;2023-04-24T00:18:52;6.50;;;5.27;;
8285;SDS011;4181;43.416;24.598;2023-04-24T00:21:18;7.23;;;5.47;;
8285;SDS011;4181;43.416;24.598;2023-04-24T00:23:43;8.07;;;5.27;;
8285;SDS011;4181;43.416;24.598;2023-04-24T00:26:09;13.63;;;7.30;;
8285;SDS011;4181;43.416;24.598;2023-04-24T00:28:35;9.07;;;7.03;;
8285;SDS011;4181;43.416;24.598;2023-04-24T00:31:01;10.47;;;7.30;;
8285;SDS011;4181;43.416;24.598;2023-04-24T00:33:26;12.43;;;7.10;;
8285;SDS011;4181;43.416;24.598;2023-04-24T00:35:52;9.17;;;5.97;;
8285;SDS011;4181;43.416;24.598;2023-04-24T00:38:17;9.37;;;5.60;;
8285;SDS011;4181;43.416;24.598;2023-04-24T00:40:43;8.83;;;5.60;;
8285;SDS011;4181;43.416;24.598;2023-04-24T00:43:09;11.73;;;6.30;;
8285;SDS011;4181;43.416;24.598;2023-04-24T00:45:35;13.93;;;7.13;;
8285;SDS011;4181;43.416;24.598;2023-04-24T00:48:01;8.30;;;6.37;;
8285;SDS011;4181;43.416;24.598;2023-04-24T00:50:26;7.83;;;5.90;;
8285;SDS011;4181;43.416;24.598;2023-04-24T00:52:53;9.73;;;6.50;;
8285;SDS011;4181;43.416;24.598;2023-04-24T00:55:19;9.30;;;6.77;;
8285;SDS011;4181;43.416;24.598;2023-04-24T00:57:45;10.80;;;6.03;;
8285;SDS011;4181;43.416;24.598;2023-04-24T01:00:11;9.80;;;6.17;;
8285;SDS011;4181;43.416;24.598;2023-04-24T01:02:38;8.77;;;5.77;;
8285;SDS011;4181;43.416;24.598;2023-04-24T01:05:06;7.97;;;5.37;;
8285;SDS011;4181;43.416;24.598;2023-04-24T01:07:33;6.73;;;5.57;;
8285;SDS011;4181;43.416;24.598;2023-04-24T01:09:59;12.53;;;6.70;;
8285;SDS011;4181;43.416;24.598;2023-04-24T01:12:25;9.67;;;6.13;;
8285;SDS011;4181;43.416;24.598;2023-04-24T01:14:50;8.57;;;5.40;;
8285;SDS011;4181;43.416;24.598;2023-04-24T01:17:16;8.13;;;5.50;;
8285;SDS011;4181;43.416;24.598;2023-04-24T01:19:41;6.23;;;5.50;;
8285;SDS011;4181;43.416;24.598;2023-04-24T01:22:15;7.47;;;5.53;;
8285;SDS011;4181;43.416;24.598;2023-04-24T01:24:42;8.53;;;5.60;;
8285;SDS011;4181;43.416;24.598;2023-04-24T01:27:09;5.80;;;5.20;;
8285;SDS011;4181;43.416;24.598;2023-04-24T01:29:35;7.87;;;5.47;;
8285;SDS011;4181;43.416;24.598;2023-04-24T01:32:02;9.60;;;6.13;;
8285;SDS011;4181;43.416;24.598;2023-04-24T01:34:28;10.13;;;5.87;;
8285;SDS011;4181;43.416;24.598;2023-04-24T01:36:54;9.60;;;5.60;;
8285;SDS011;4181;43.416;24.598;2023-04-24T01:39:21;10.53;;;5.50;;
8285;SDS011;4181;43.416;24.598;2023-04-24T01:41:48;9.90;;;6.30;;
8285;SDS011;4181;43.416;24.598;2023-04-24T01:44:15;8.80;;;5.47;;
8285;SDS011;4181;43.416;24.598;2023-04-24T01:46:41;8.10;;;5.67;;
8285;SDS011;4181;43.416;24.598;2023-04-24T01:49:07;9.13;;;6.20;;
8285;SDS011;4181;43.416;24.598;2023-04-24T01:51:32;8.17;;;5.33;;
8285;SDS011;4181;43.416;24.598;2023-04-24T01:53:58;10.10;;;6.87;;
8285;SDS011;4181;43.416;24.598;2023-04-24T01:56:23;7.10;;;5.50;;
8285;SDS011;4181;43.416;24.598;2023-04-24T01:58:50;10.00;;;5.97;;
8285;SDS011;4181;43.416;24.598;2023-04-24T02:01:19;33.20;;;8.57;;
8285;SDS011;4181;43.416;24.598;2023-04-24T02:03:45;8.97;;;5.80;;
8285;SDS011;4181;43.416;24.598;2023-04-24T02:06:11;10.30;;;6.40;;
8285;SDS011;4181;43.416;24.598;2023-04-24T02:08:37;10.23;;;6.37;;
8285;SDS011;4181;43.416;24.598;2023-04-24T02:11:02;8.37;;;5.97;;
8285;SDS011;4181;43.416;24.598;2023-04-24T02:13:28;12.93;;;6.80;;
8285;SDS011;4181;43.416;24.598;2023-04-24T02:15:54;8.00;;;6.53;;
8285;SDS011;4181;43.416;24.598;2023-04-24T02:18:19;9.43;;;6.80;;
8285;SDS011;4181;43.416;24.598;2023-04-24T02:20:45;13.43;;;9.93;;
8285;SDS011;4181;43.416;24.598;2023-04-24T02:23:11;8.17;;;6.33;;
8285;SDS011;4181;43.416;24.598;2023-04-24T02:25:36;14.33;;;7.63;;
8285;SDS011;4181;43.416;24.598;2023-04-24T02:28:02;9.50;;;6.50;;
8285;SDS011;4181;43.416;24.598;2023-04-24T02:30:28;10.37;;;6.40;;
8285;SDS011;4181;43.416;24.598;2023-04-24T02:32:53;9.73;;;6.27;;
8285;SDS011;4181;43.416;24.598;2023-04-24T02:35:19;7.87;;;6.47;;
8285;SDS011;4181;43.416;24.598;2023-04-24T02:37:45;6.80;;;6.00;;
8285;SDS011;4181;43.416;24.598;2023-04-24T02:40:10;7.87;;;6.00;;
8285;SDS011;4181;43.416;24.598;2023-04-24T02:42:36;6.87;;;5.87;;
8285;SDS011;4181;43.416;24.598;2023-04-24T02:45:01;12.50;;;6.90;;
8285;SDS011;4181;43.416;24.598;2023-04-24T02:47:27;8.87;;;6.20;;
8285;SDS011;4181;43.416;24.598;2023-04-24T02:49:52;12.87;;;7.40;;
8285;SDS011;4181;43.416;24.598;2023-04-24T02:52:17;15.47;;;9.30;;
8285;SDS011;4181;43.416;24.598;2023-04-24T02:54:43;13.40;;;8.80;;
8285;SDS011;4181;43.416;24.598;2023-04-24T02:57:08;15.27;;;10.57;;
8285;SDS011;4181;43.416;24.598;2023-04-24T02:59:34;17.27;;;10.80;;
8285;SDS011;4181;43.416;24.598;2023-04-24T03:01:59;14.00;;;8.93;;
8285;SDS011;4181;43.416;24.598;2023-04-24T03:04:25;10.03;;;6.90;;
8285;SDS011;4181;43.416;24.598;2023-04-24T03:06:51;17.83;;;7.40;;
8285;SDS011;4181;43.416;24.598;2023-04-24T03:09:20;15.67;;;7.63;;
8285;SDS011;4181;43.416;24.598;2023-04-24T03:11:48;12.40;;;8.30;;
8285;SDS011;4181;43.416;24.598;2023-04-24T03:14:14;12.13;;;6.40;;
8285;SDS011;4181;43.416;24.598;2023-04-24T03:16:40;8.43;;;7.07;;
8285;SDS011;4181;43.416;24.598;2023-04-24T03:19:05;15.87;;;6.63;;
8285;SDS011;4181;43.416;24.598;2023-04-24T03:21:31;12.60;;;7.00;;
8285;SDS011;4181;43.416;24.598;2023-04-24T03:23:56;19.73;;;7.60;;
8285;SDS011;4181;43.416;24.598;2023-04-24T03:26:22;11.03;;;6.70;;
8285;SDS011;4181;43.416;24.598;2023-04-24T03:28:47;14.30;;;7.07;;
8285;SDS011;4181;43.416;24.598;2023-04-24T03:31:12;14.93;;;7.23;;
8285;SDS011;4181;43.416;24.598;2023-04-24T03:33:38;14.63;;;7.07;;
8285;SDS011;4181;43.416;24.598;2023-04-24T03:36:03;13.53;;;7.03;;
8285;SDS011;4181;43.416;24.598;2023-04-24T03:38:30;13.23;;;7.03;;
8285;SDS011;4181;43.416;24.598;2023-04-24T03:40:55;13.77;;;7.30;;
8285;SDS011;4181;43.416;24.598;2023-04-24T03:43:20;11.53;;;7.57;;
8285;SDS011;4181;43.416;24.598;2023-04-24T03:45:46;10.93;;;6.83;;
8285;SDS011;4181;43.416;24.598;2023-04-24T03:48:11;25.30;;;16.10;;
8285;SDS011;4181;43.416;24.598;2023-04-24T03:50:37;22.00;;;12.00;;
8285;SDS011;4181;43.416;24.598;2023-04-24T03:53:02;9.33;;;7.37;;
8285;SDS011;4181;43.416;24.598;2023-04-24T03:55:28;6.97;;;6.27;;
8285;SDS011;4181;43.416;24.598;2023-04-24T03:57:54;9.37;;;6.90;;
8285;SDS011;4181;43.416;24.598;2023-04-24T04:00:19;13.07;;;7.67;;
8285;SDS011;4181;43.416;24.598;2023-04-24T04:02:46;12.23;;;7.43;;
8285;SDS011;4181;43.416;24.598;2023-04-24T04:05:11;9.50;;;7.10;;
8285;SDS011;4181;43.416;24.598;2023-04-24T04:07:37;12.97;;;7.30;;
8285;SDS011;4181;43.416;24.598;2023-04-24T04:10:02;16.43;;;7.03;;
8285;SDS011;4181;43.416;24.598;2023-04-24T04:12:28;13.90;;;7.20;;
8285;SDS011;4181;43.416;24.598;2023-04-24T04:14:53;13.17;;;7.70;;
8285;SDS011;4181;43.416;24.598;2023-04-24T04:17:19;13.03;;;7.20;;
8285;SDS011;4181;43.416;24.598;2023-04-24T04:19:44;14.63;;;7.67;;
8285;SDS011;4181;43.416;24.598;2023-04-24T04:22:10;7.90;;;7.07;;
8285;SDS011;4181;43.416;24.598;2023-04-24T04:24:35;11.60;;;6.67;;
8285;SDS011;4181;43.416;24.598;2023-04-24T04:27:03;27.03;;;12.17;;
8285;SDS011;4181;43.416;24.598;2023-04-24T04:29:30;15.43;;;9.83;;
8285;SDS011;4181;43.416;24.598;2023-04-24T04:31:56;11.00;;;7.80;;
8285;SDS011;4181;43.416;24.598;2023-04-24T04:34:22;14.47;;;7.57;;
8285;SDS011;4181;43.416;24.598;2023-04-24T04:36:48;12.43;;;7.60;;
8285;SDS011;4181;43.416;24.598;2023-04-24T04:39:13;10.37;;;7.30;;
8285;SDS011;4181;43.416;24.598;2023-04-24T04:41:41;14.33;;;7.73;;
8285;SDS011;4181;43.416;24.598;2023-04-24T04:44:06;9.77;;;7.13;;
8285;SDS011;4181;43.416;24.598;2023-04-24T04:46:33;7.83;;;7.00;;
8285;SDS011;4181;43.416;24.598;2023-04-24T04:49:02;7.47;;;6.17;;
8285;SDS011;4181;43.416;24.598;2023-04-24T04:51:27;7.77;;;6.50;;
8285;SDS011;4181;43.416;24.598;2023-04-24T04:53:53;8.93;;;5.93;;
8285;SDS011;4181;43.416;24.598;2023-04-24T04:56:19;8.23;;;6.53;;
8285;SDS011;4181;43.416;24.598;2023-04-24T04:58:44;8.10;;;6.53;;
8285;SDS011;4181;43.416;24.598;2023-04-24T05:01:09;17.00;;;7.33;;
8285;SDS011;4181;43.416;24.598;2023-04-24T05:03:35;12.37;;;8.60;;
8285;SDS011;4181;43.416;24.598;2023-04-24T05:06:01;18.50;;;9.87;;
8285;SDS011;4181;43.416;24.598;2023-04-24T05:08:27;12.67;;;8.40;;
8285;SDS011;4181;43.416;24.598;2023-04-24T05:10:52;15.43;;;8.93;;
8285;SDS011;4181;43.416;24.598;2023-04-24T05:13:18;10.60;;;7.70;;
8285;SDS011;4181;43.416;24.598;2023-04-24T05:15:44;16.37;;;7.73;;
8285;SDS011;4181;43.416;24.598;2023-04-24T05:18:10;10.97;;;7.37;;
8285;SDS011;4181;43.416;24.598;2023-04-24T05:20:35;10.50;;;7.53;;
8285;SDS011;4181;43.416;24.598;2023-04-24T05:23:01;10.57;;;7.33;;
8285;SDS011;4181;43.416;24.598;2023-04-24T05:25:26;10.67;;;7.13;;
8285;SDS011;4181;43.416;24.598;2023-04-24T05:27:52;11.13;;;6.70;;
8285;SDS011;4181;43.416;24.598;2023-04-24T05:30:18;8.40;;;6.40;;
8285;SDS011;4181;43.416;24.598;2023-04-24T05:32:44;14.30;;;6.80;;
8285;SDS011;4181;43.416;24.598;2023-04-24T05:35:10;9.83;;;7.17;;
8285;SDS011;4181;43.416;24.598;2023-04-24T05:37:35;8.00;;;6.20;;
8285;SDS011;4181;43.416;24.598;2023-04-24T05:40:01;8.87;;;5.83;;
8285;SDS011;4181;43.416;24.598;2023-04-24T05:42:27;11.13;;;5.93;;
8285;SDS011;4181;43.416;24.598;2023-04-24T05:44:52;7.03;;;5.70;;
8285;SDS011;4181;43.416;24.598;2023-04-24T05:47:19;7.53;;;6.73;;
8285;SDS011;4181;43.416;24.598;2023-04-24T05:49:46;9.13;;;5.90;;
8285;SDS011;4181;43.416;24.598;2023-04-24T05:52:12;8.50;;;6.20;;
8285;SDS011;4181;43.416;24.598;2023-04-24T05:54:37;7.07;;;5.83;;
8285;SDS011;4181;43.416;24.598;2023-04-24T05:57:02;9.03;;;5.87;;
8285;SDS011;4181;43.416;24.598;2023-04-24T05:59:32;6.90;;;5.43;;
8285;SDS011;4181;43.416;24.598;2023-04-24T06:01:58;7.30;;;5.90;;
8285;SDS011;4181;43.416;24.598;2023-04-24T06:04:24;11.07;;;6.20;;
8285;SDS011;4181;43.416;24.598;2023-04-24T06:06:49;13.07;;;6.03;;
8285;SDS011;4181;43.416;24.598;2023-04-24T06:09:16;9.73;;;7.43;;
8285;SDS011;4181;43.416;24.598;2023-04-24T06:11:42;12.03;;;7.20;;
8285;SDS011;4181;43.416;24.598;2023-04-24T06:14:11;10.63;;;6.23;;
8285;SDS011;4181;43.416;24.598;2023-04-24T06:16:36;7.27;;;6.57;;
8285;SDS011;4181;43.416;24.598;2023-04-24T06:19:03;11.00;;;6.30;;
8285;SDS011;4181;43.416;24.598;2023-04-24T06:21:29;8.90;;;6.60;;
8285;SDS011;4181;43.416;24.598;2023-04-24T06:23:55;10.63;;;6.13;;
8285;SDS011;4181;43.416;24.598;2023-04-24T06:26:21;12.40;;;6.47;;
8285;SDS011;4181;43.416;24.598;2023-04-24T06:28:47;8.43;;;6.20;;
8285;SDS011;4181;43.416;24.598;2023-04-24T06:31:12;14.33;;;6.97;;
8285;SDS011;4181;43.416;24.598;2023-04-24T06:33:38;6.97;;;5.40;;
8285;SDS011;4181;43.416;24.598;2023-04-24T06:36:03;7.03;;;5.70;;
8285;SDS011;4181;43.416;24.598;2023-04-24T06:38:29;6.47;;;5.67;;
8285;SDS011;4181;43.416;24.598;2023-04-24T06:40:54;13.87;;;5.70;;
8285;SDS011;4181;43.416;24.598;2023-04-24T06:43:20;6.50;;;4.97;;
8285;SDS011;4181;43.416;24.598;2023-04-24T06:45:45;6.47;;;5.60;;
8285;SDS011;4181;43.416;24.598;2023-04-24T06:48:12;6.13;;;5.17;;
8285;SDS011;4181;43.416;24.598;2023-04-24T06:50:37;7.40;;;5.70;;
8285;SDS011;4181;43.416;24.598;2023-04-24T06:53:03;7.93;;;5.57;;
8285;SDS011;4181;43.416;24.598;2023-04-24T06:55:28;5.67;;;4.80;;
8285;SDS011;4181;43.416;24.598;2023-04-24T06:57:54;7.70;;;4.77;;
8285;SDS011;4181;43.416;24.598;2023-04-24T07:00:19;7.93;;;4.50;;
8285;SDS011;4181;43.416;24.598;2023-04-24T07:02:45;6.27;;;4.50;;
8285;SDS011;4181;43.416;24.598;2023-04-24T07:05:11;5.40;;;4.03;;
8285;SDS011;4181;43.416;24.598;2023-04-24T07:07:37;4.80;;;3.80;;
8285;SDS011;4181;43.416;24.598;2023-04-24T07:10:05;10.27;;;8.27;;
8285;SDS011;4181;43.416;24.598;2023-04-24T07:12:31;4.93;;;4.30;;
8285;SDS011;4181;43.416;24.598;2023-04-24T07:14:57;5.03;;;4.00;;
8285;SDS011;4181;43.416;24.598;2023-04-24T07:17:22;4.73;;;4.33;;
8285;SDS011;4181;43.416;24.598;2023-04-24T07:19:48;4.37;;;3.97;;
8285;SDS011;4181;43.416;24.598;2023-04-24T07:22:13;4.33;;;3.90;;
8285;SDS011;4181;43.416;24.598;2023-04-24T07:24:42;4.30;;;3.90;;
8285;SDS011;4181;43.416;24.598;2023-04-24T07:27:10;5.23;;;4.47;;
8285;SDS011;4181;43.416;24.598;2023-04-24T07:29:36;9.07;;;4.27;;
8285;SDS011;4181;43.416;24.598;2023-04-24T07:32:03;6.70;;;4.50;;
8285;SDS011;4181;43.416;24.598;2023-04-24T07:34:28;5.57;;;3.83;;
8285;SDS011;4181;43.416;24.598;2023-04-24T07:36:54;6.43;;;4.53;;
8285;SDS011;4181;43.416;24.598;2023-04-24T07:39:20;4.33;;;4.00;;
8285;SDS011;4181;43.416;24.598;2023-04-24T07:41:45;4.57;;;4.17;;
8285;SDS011;4181;43.416;24.598;2023-04-24T07:44:11;4.33;;;3.77;;
8285;SDS011;4181;43.416;24.598;2023-04-24T07:46:36;4.57;;;3.90;;
8285;SDS011;4181;43.416;24.598;2023-04-24T07:49:02;5.20;;;4.33;;
8285;SDS011;4181;43.416;24.598;2023-04-24T07:51:29;10.50;;;4.70;;
8285;SDS011;4181;43.416;24.598;2023-04-24T07:53:56;6.87;;;4.90;;
8285;SDS011;4181;43.416;24.598;2023-04-24T07:56:21;10.17;;;5.03;;
8285;SDS011;4181;43.416;24.598;2023-04-24T07:58:47;7.77;;;5.73;;
8285;SDS011;4181;43.416;24.598;2023-04-24T08:01:12;5.30;;;4.50;;
8285;SDS011;4181;43.416;24.598;2023-04-24T08:03:38;8.93;;;4.67;;
8285;SDS011;4181;43.416;24.598;2023-04-24T08:06:03;6.93;;;4.30;;
8285;SDS011;4181;43.416;24.598;2023-04-24T08:08:29;5.77;;;3.73;;
8285;SDS011;4181;43.416;24.598;2023-04-24T08:10:54;6.47;;;4.30;;
8285;SDS011;4181;43.416;24.598;2023-04-24T08:13:20;7.07;;;4.60;;
8285;SDS011;4181;43.416;24.598;2023-04-24T08:15:45;7.40;;;4.93;;
8285;SDS011;4181;43.416;24.598;2023-04-24T08:18:11;7.00;;;5.20;;
8285;SDS011;4181;43.416;24.598;2023-04-24T08:20:38;7.60;;;5.73;;
8285;SDS011;4181;43.416;24.598;2023-04-24T08:23:04;10.53;;;7.93;;
8285;SDS011;4181;43.416;24.598;2023-04-24T08:25:30;11.57;;;9.53;;
8285;SDS011;4181;43.416;24.598;2023-04-24T08:27:55;8.87;;;7.97;;
8285;SDS011;4181;43.416;24.598;2023-04-24T08:30:20;9.00;;;8.10;;
8285;SDS011;4181;43.416;24.598;2023-04-24T08:32:47;12.83;;;7.83;;
8285;SDS011;4181;43.416;24.598;2023-04-24T08:35:12;11.23;;;6.80;;
8285;SDS011;4181;43.416;24.598;2023-04-24T08:37:38;8.57;;;6.23;;
8285;SDS011;4181;43.416;24.598;2023-04-24T08:40:05;9.90;;;6.77;;
8285;SDS011;4181;43.416;24.598;2023-04-24T08:42:36;7.87;;;5.57;;
8285;SDS011;4181;43.416;24.598;2023-04-24T08:45:02;6.43;;;5.80;;
8285;SDS011;4181;43.416;24.598;2023-04-24T08:47:28;8.30;;;5.70;;
8285;SDS011;4181;43.416;24.598;2023-04-24T08:49:54;9.10;;;5.77;;
8285;SDS011;4181;43.416;24.598;2023-04-24T08:52:20;7.73;;;4.97;;
8285;SDS011;4181;43.416;24.598;2023-04-24T08:54:47;9.20;;;5.80;;
8285;SDS011;4181;43.416;24.598;2023-04-24T08:57:15;6.00;;;5.40;;
8285;SDS011;4181;43.416;24.598;2023-04-24T08:59:41;7.13;;;5.20;;
8285;SDS011;4181;43.416;24.598;2023-04-24T09:02:09;8.57;;;4.97;;
8285;SDS011;4181;43.416;24.598;2023-04-24T09:04:35;4.90;;;4.50;;
8285;SDS011;4181;43.416;24.598;2023-04-24T09:07:02;7.63;;;5.23;;
8285;SDS011;4181;43.416;24.598;2023-04-24T09:09:31;11.23;;;7.03;;
8285;SDS011;4181;43.416;24.598;2023-04-24T09:11:58;10.67;;;7.00;;
8285;SDS011;4181;43.416;24.598;2023-04-24T09:14:24;11.00;;;8.40;;
8285;SDS011;4181;43.416;24.598;2023-04-24T09:16:50;13.67;;;11.17;;
8285;SDS011;4181;43.416;24.598;2023-04-24T09:19:16;12.50;;;11.30;;
8285;SDS011;4181;43.416;24.598;2023-04-24T09:21:41;10.53;;;9.30;;
8285;SDS011;4181;43.416;24.598;2023-04-24T09:24:17;12.50;;;9.30;;
8285;SDS011;4181;43.416;24.598;2023-04-24T09:26:45;11.80;;;5.90;;
8285;SDS011;4181;43.416;24.598;2023-04-24T09:29:17;10.53;;;5.23;;
8285;SDS011;4181;43.416;24.598;2023-04-24T09:31:44;5.80;;;5.30;;
8285;SDS011;4181;43.416;24.598;2023-04-24T09:34:10;8.07;;;5.40;;
8285;SDS011;4181;43.416;24.598;2023-04-24T09:36:37;8.07;;;5.80;;
8285;SDS011;4181;43.416;24.598;2023-04-24T09:39:08;7.60;;;5.87;;
8285;SDS011;4181;43.416;24.598;2023-04-24T09:44:16;9.07;;;5.67;;
8285;SDS011;4181;43.416;24.598;2023-04-24T09:49:22;5.20;;;4.47;;
8285;SDS011;4181;43.416;24.598;2023-04-24T09:51:51;6.60;;;4.97;;
8285;SDS011;4181;43.416;24.598;2023-04-24T09:54:27;6.07;;;4.23;;
8285;SDS011;4181;43.416;24.598;2023-04-24T09:56:52;7.83;;;5.00;;
8285;SDS011;4181;43.416;24.598;2023-04-24T09:59:19;5.40;;;4.20;;
8285;SDS011;4181;43.416;24.598;2023-04-24T10:01:45;6.07;;;4.00;;
8285;SDS011;4181;43.416;24.598;2023-04-24T10:06:42;5.87;;;4.80;;
8285;SDS011;4181;43.416;24.598;2023-04-24T10:09:08;4.50;;;4.10;;
8285;SDS011;4181;43.416;24.598;2023-04-24T10:11:36;4.10;;;3.80;;
8285;SDS011;4181;43.416;24.598;2023-04-24T10:14:02;6.60;;;3.93;;
8285;SDS011;4181;43.416;24.598;2023-04-24T10:16:28;10.23;;;4.40;;
8285;SDS011;4181;43.416;24.598;2023-04-24T10:18:56;7.20;;;4.30;;
8285;SDS011;4181;43.416;24.598;2023-04-24T10:21:24;5.17;;;4.20;;
8285;SDS011;4181;43.416;24.598;2023-04-24T10:23:51;6.90;;;4.00;;
8285;SDS011;4181;43.416;24.598;2023-04-24T10:26:18;6.33;;;4.13;;
8285;SDS011;4181;43.416;24.598;2023-04-24T10:28:47;9.13;;;4.50;;
8285;SDS011;4181;43.416;24.598;2023-04-24T10:31:13;5.07;;;4.23;;
8285;SDS011;4181;43.416;24.598;2023-04-24T10:33:40;5.80;;;4.37;;
8285;SDS011;4181;43.416;24.598;2023-04-24T10:36:07;9.23;;;4.80;;
8285;SDS011;4181;43.416;24.598;2023-04-24T10:38:37;7.97;;;4.40;;
8285;SDS011;4181;43.416;24.598;2023-04-24T10:41:09;5.20;;;4.00;;
8285;SDS011;4181;43.416;24.598;2023-04-24T10:43:41;5.17;;;4.43;;
8285;SDS011;4181;43.416;24.598;2023-04-24T10:46:07;9.70;;;4.30;;
8285;SDS011;4181;43.416;24.598;2023-04-24T10:48:35;5.17;;;4.33;;
8285;SDS011;4181;43.416;24.598;2023-04-24T10:51:10;4.40;;;4.00;;
8285;SDS011;4181;43.416;24.598;2023-04-24T10:53:37;6.90;;;4.97;;
8285;SDS011;4181;43.416;24.598;2023-04-24T10:56:03;6.70;;;4.23;;
8285;SDS011;4181;43.416;24.598;2023-04-24T11:01:05;12.70;;;5.00;;
8285;SDS011;4181;43.416;24.598;2023-04-24T11:03:32;5.43;;;4.70;;
8285;SDS011;4181;43.416;24.598;2023-04-24T11:06:00;5.33;;;4.40;;
8285;SDS011;4181;43.416;24.598;2023-04-24T11:11:01;4.10;;;3.60;;
8285;SDS011;4181;43.416;24.598;2023-04-24T11:18:51;6.45;;;4.40;;
8285;SDS011;4181;43.416;24.598;2023-04-24T11:21:25;6.15;;;3.85;;
8285;SDS011;4181;43.416;24.598;2023-04-24T11:23:51;6.40;;;4.17;;
8285;SDS011;4181;43.416;24.598;2023-04-24T11:26:18;5.20;;;4.20;;
8285;SDS011;4181;43.416;24.598;2023-04-24T11:28:49;5.70;;;4.03;;
8285;SDS011;4181;43.416;24.598;2023-04-24T11:34:14;6.50;;;4.93;;
8285;SDS011;4181;43.416;24.598;2023-04-24T11:36:47;4.63;;;4.00;;
8285;SDS011;4181;43.416;24.598;2023-04-24T11:39:13;6.00;;;3.73;;
8285;SDS011;4181;43.416;24.598;2023-04-24T11:41:40;4.53;;;4.13;;
8285;SDS011;4181;43.416;24.598;2023-04-24T11:44:06;9.13;;;4.57;;
8285;SDS011;4181;43.416;24.598;2023-04-24T11:46:32;7.40;;;4.40;;
8285;SDS011;4181;43.416;24.598;2023-04-24T11:48:58;6.97;;;4.00;;
8285;SDS011;4181;43.416;24.598;2023-04-24T11:51:25;4.83;;;4.00;;
8285;SDS011;4181;43.416;24.598;2023-04-24T11:53:55;4.50;;;4.00;;
8285;SDS011;4181;43.416;24.598;2023-04-24T11:56:24;4.97;;;3.77;;
8285;SDS011;4181;43.416;24.598;2023-04-24T11:58:53;5.23;;;3.67;;
8285;SDS011;4181;43.416;24.598;2023-04-24T12:01:21;6.27;;;4.30;;
8285;SDS011;4181;43.416;24.598;2023-04-24T12:03:50;5.93;;;3.43;;
8285;SDS011;4181;43.416;24.598;2023-04-24T12:06:16;4.90;;;3.73;;
8285;SDS011;4181;43.416;24.598;2023-04-24T12:08:45;5.33;;;3.77;;
8285;SDS011;4181;43.416;24.598;2023-04-24T12:11:14;4.37;;;3.40;;
8285;SDS011;4181;43.416;24.598;2023-04-24T12:13:40;9.30;;;4.60;;
8285;SDS011;4181;43.416;24.598;2023-04-24T12:16:06;6.70;;;3.60;;
8285;SDS011;4181;43.416;24.598;2023-04-24T12:18:32;8.67;;;3.73;;
8285;SDS011;4181;43.416;24.598;2023-04-24T12:23:43;5.07;;;3.47;;
8285;SDS011;4181;43.416;24.598;2023-04-24T12:26:09;3.93;;;3.53;;
8285;SDS011;4181;43.416;24.598;2023-04-24T12:28:35;5.90;;;3.37;;
8285;SDS011;4181;43.416;24.598;2023-04-24T12:31:02;6.57;;;3.97;;
8285;SDS011;4181;43.416;24.598;2023-04-24T12:33:27;6.23;;;3.90;;
8285;SDS011;4181;43.416;24.598;2023-04-24T12:35:58;5.53;;;3.37;;
8285;SDS011;4181;43.416;24.598;2023-04-24T12:38:25;4.03;;;3.30;;
8285;SDS011;4181;43.416;24.598;2023-04-24T12:41:11;3.97;;;3.10;;
8285;SDS011;4181;43.416;24.598;2023-04-24T12:43:38;4.90;;;3.57;;
8285;SDS011;4181;43.416;24.598;2023-04-24T12:46:03;5.77;;;3.70;;
8285;SDS011;4181;43.416;24.598;2023-04-24T12:48:29;7.60;;;3.33;;
8285;SDS011;4181;43.416;24.598;2023-04-24T12:50:58;6.13;;;3.70;;
8285;SDS011;4181;43.416;24.598;2023-04-24T12:53:26;7.27;;;3.87;;
8285;SDS011;4181;43.416;24.598;2023-04-24T12:55:54;6.63;;;3.30;;
8285;SDS011;4181;43.416;24.598;2023-04-24T12:58:19;5.83;;;3.57;;
8285;SDS011;4181;43.416;24.598;2023-04-24T13:00:45;9.50;;;5.70;;
8285;SDS011;4181;43.416;24.598;2023-04-24T13:03:11;7.43;;;3.40;;
8285;SDS011;4181;43.416;24.598;2023-04-24T13:05:37;6.67;;;3.40;;
8285;SDS011;4181;43.416;24.598;2023-04-24T13:08:03;10.67;;;4.47;;
8285;SDS011;4181;43.416;24.598;2023-04-24T13:10:28;4.83;;;2.87;;
8285;SDS011;4181;43.416;24.598;2023-04-24T13:12:54;3.47;;;3.10;;
8285;SDS011;4181;43.416;24.598;2023-04-24T13:15:19;4.90;;;3.13;;
8285;SDS011;4181;43.416;24.598;2023-04-24T13:17:45;6.50;;;3.20;;
8285;SDS011;4181;43.416;24.598;2023-04-24T13:20:10;3.90;;;3.47;;
8285;SDS011;4181;43.416;24.598;2023-04-24T13:22:36;3.90;;;3.40;;
8285;SDS011;4181;43.416;24.598;2023-04-24T13:25:02;6.17;;;3.87;;
8285;SDS011;4181;43.416;24.598;2023-04-24T13:27:27;8.90;;;3.50;;
8285;SDS011;4181;43.416;24.598;2023-04-24T13:29:53;4.80;;;3.07;;
8285;SDS011;4181;43.416;24.598;2023-04-24T13:32:18;5.77;;;3.40;;
8285;SDS011;4181;43.416;24.598;2023-04-24T13:34:44;7.67;;;4.40;;
8285;SDS011;4181;43.416;24.598;2023-04-24T13:37:10;6.20;;;4.37;;
8285;SDS011;4181;43.416;24.598;2023-04-24T13:39:35;5.87;;;4.80;;
8285;SDS011;4181;43.416;24.598;2023-04-24T13:42:01;7.53;;;4.13;;
8285;SDS011;4181;43.416;24.598;2023-04-24T13:44:26;5.73;;;4.20;;
8285;SDS011;4181;43.416;24.598;2023-04-24T13:46:54;5.13;;;4.63;;
8285;SDS011;4181;43.416;24.598;2023-04-24T13:49:21;10.33;;;5.33;;
8285;SDS011;4181;43.416;24.598;2023-04-24T13:51:49;6.83;;;4.53;;
8285;SDS011;4181;43.416;24.598;2023-04-24T13:54:15;4.70;;;4.30;;
8285;SDS011;4181;43.416;24.598;2023-04-24T13:56:41;5.23;;;4.30;;
8285;SDS011;4181;43.416;24.598;2023-04-24T13:59:06;8.07;;;5.40;;
8285;SDS011;4181;43.416;24.598;2023-04-24T14:01:32;10.10;;;5.27;;
8285;SDS011;4181;43.416;24.598;2023-04-24T14:03:57;8.07;;;4.83;;
8285;SDS011;4181;43.416;24.598;2023-04-24T14:06:23;9.20;;;5.87;;
8285;SDS011;4181;43.416;24.598;2023-04-24T14:08:49;7.47;;;5.23;;
8285;SDS011;4181;43.416;24.598;2023-04-24T14:11:15;6.13;;;4.97;;
8285;SDS011;4181;43.416;24.598;2023-04-24T14:13:41;6.33;;;4.63;;
8285;SDS011;4181;43.416;24.598;2023-04-24T14:16:07;7.60;;;4.73;;
8285;SDS011;4181;43.416;24.598;2023-04-24T14:18:33;7.20;;;4.80;;
8285;SDS011;4181;43.416;24.598;2023-04-24T14:20:59;7.23;;;4.70;;
8285;SDS011;4181;43.416;24.598;2023-04-24T14:23:26;8.83;;;4.23;;
8285;SDS011;4181;43.416;24.598;2023-04-24T14:25:52;9.43;;;5.53;;
8285;SDS011;4181;43.416;24.598;2023-04-24T14:28:18;7.67;;;4.47;;
8285;SDS011;4181;43.416;24.598;2023-04-24T14:30:45;6.00;;;4.70;;
8285;SDS011;4181;43.416;24.598;2023-04-24T14:33:11;14.60;;;9.77;;
8285;SDS011;4181;43.416;24.598;2023-04-24T14:35:37;16.60;;;8.60;;
8285;SDS011;4181;43.416;24.598;2023-04-24T14:38:03;5.47;;;4.43;;
8285;SDS011;4181;43.416;24.598;2023-04-24T14:40:29;6.40;;;4.60;;
8285;SDS011;4181;43.416;24.598;2023-04-24T14:42:56;4.83;;;4.30;;
8285;SDS011;4181;43.416;24.598;2023-04-24T14:45:22;5.67;;;5.10;;
8285;SDS011;4181;43.416;24.598;2023-04-24T14:47:48;8.10;;;4.33;;
8285;SDS011;4181;43.416;24.598;2023-04-24T14:50:14;11.40;;;5.53;;
8285;SDS011;4181;43.416;24.598;2023-04-24T14:52:39;6.57;;;4.53;;
8285;SDS011;4181;43.416;24.598;2023-04-24T14:55:05;6.77;;;5.40;;
8285;SDS011;4181;43.416;24.598;2023-04-24T14:57:32;5.87;;;4.60;;
8285;SDS011;4181;43.416;24.598;2023-04-24T14:59:58;12.90;;;6.80;;
8285;SDS011;4181;43.416;24.598;2023-04-24T15:02:23;6.90;;;5.13;;
8285;SDS011;4181;43.416;24.598;2023-04-24T15:04:48;6.13;;;4.73;;
8285;SDS011;4181;43.416;24.598;2023-04-24T15:07:14;7.37;;;5.70;;
8285;SDS011;4181;43.416;24.598;2023-04-24T15:09:40;6.23;;;4.83;;
8285;SDS011;4181;43.416;24.598;2023-04-24T15:12:05;9.50;;;6.20;;
8285;SDS011;4181;43.416;24.598;2023-04-24T15:14:31;9.40;;;6.67;;
8285;SDS011;4181;43.416;24.598;2023-04-24T15:16:56;6.60;;;5.93;;